createdAt,value
2018-03-26T00:00:16.770Z,59.10
2018-03-26T00:02:44.318Z,59.30
2018-03-26T00:05:11.826Z,74.07
2018-03-26T00:07:39.342Z,59.07
2018-03-26T00:10:06.887Z,63.40
2018-03-26T00:12:34.404Z,63.87
2018-03-26T00:15:02.798Z,63.77
2018-03-26T00:17:31.066Z,56.83
2018-03-26T00:19:59.380Z,66.90
2018-03-26T00:22:26.917Z,64.13
2018-03-26T00:24:54.453Z,61.30
2018-03-26T00:27:22.254Z,64.30
2018-03-26T00:29:49.746Z,64.30
2018-03-26T00:32:17.231Z,71.87
2018-03-26T00:34:45.687Z,67.00
2018-03-26T00:37:13.173Z,73.63
2018-03-26T00:39:40.695Z,65.27
2018-03-26T00:42:08.186Z,70.00
2018-03-26T00:44:36.496Z,71.20
2018-03-26T00:47:04.018Z,75.50
2018-03-26T00:49:32.433Z,70.83
2018-03-26T00:51:59.952Z,66.93
2018-03-26T00:54:27.519Z,65.50
2018-03-26T00:56:57.110Z,63.97
2018-03-26T00:59:24.576Z,69.87
2018-03-26T01:01:52.862Z,71.33
2018-03-26T01:04:20.391Z,75.77
2018-03-26T01:06:47.906Z,77.07
2018-03-26T01:09:15.432Z,73.30
2018-03-26T01:11:43.733Z,63.30
2018-03-26T01:14:11.221Z,71.07
2018-03-26T01:16:38.729Z,74.90
2018-03-26T01:19:06.247Z,66.87
2018-03-26T01:21:33.773Z,68.10
2018-03-26T01:24:01.292Z,73.60
2018-03-26T01:26:29.582Z,74.37
2018-03-26T01:28:57.109Z,89.40
2018-03-26T01:31:25.430Z,79.53
2018-03-26T01:33:52.939Z,74.53
2018-03-26T01:36:20.466Z,77.23
2018-03-26T01:38:48.005Z,79.17
2018-03-26T01:41:15.550Z,95.50
2018-03-26T01:43:43.064Z,82.80
2018-03-26T01:46:11.388Z,83.60
2018-03-26T01:48:38.980Z,80.73
2018-03-26T01:51:06.504Z,72.40
2018-03-26T01:53:34.069Z,83.60
2018-03-26T01:56:01.572Z,85.63
2018-03-26T01:58:29.084Z,85.47
2018-03-26T02:00:56.643Z,84.20
2018-03-26T02:03:24.158Z,78.43
2018-03-26T02:05:52.487Z,86.03
2018-03-26T02:08:20.022Z,85.30
2018-03-26T02:10:47.531Z,86.37
2018-03-26T02:13:15.119Z,84.40
2018-03-26T02:15:43.603Z,99.83
2018-03-26T02:18:11.946Z,93.27
2018-03-26T02:20:39.510Z,96.93
2018-03-26T02:23:07.095Z,109.20
2018-03-26T02:25:35.417Z,114.83
2018-03-26T02:28:02.938Z,106.37
2018-03-26T02:30:30.486Z,115.73
2018-03-26T02:32:58.931Z,122.33
2018-03-26T02:35:26.467Z,120.13
2018-03-26T02:37:53.993Z,127.97
2018-03-26T02:40:22.115Z,127.43
2018-03-26T02:42:49.630Z,132.43
2018-03-26T02:45:17.162Z,131.57
2018-03-26T02:47:44.702Z,134.90
2018-03-26T02:50:12.277Z,142.93
2018-03-26T02:52:39.772Z,147.70
2018-03-26T02:55:07.657Z,138.83
2018-03-26T02:57:35.234Z,152.50
2018-03-26T03:00:02.781Z,176.80
2018-03-26T03:02:30.326Z,174.20
2018-03-26T03:04:57.854Z,172.57
2018-03-26T03:07:25.544Z,155.63
2018-03-26T03:09:53.047Z,179.97
2018-03-26T03:12:21.335Z,157.50
2018-03-26T03:14:49.590Z,172.07
2018-03-26T03:17:17.104Z,159.07
2018-03-26T03:19:44.758Z,155.60
2018-03-26T03:22:12.297Z,159.23
2018-03-26T03:24:39.792Z,164.70
2018-03-26T03:27:07.329Z,178.57
2018-03-26T03:29:34.822Z,173.43
2018-03-26T03:32:02.897Z,151.73
2018-03-26T03:34:30.383Z,172.47
2018-03-26T03:36:58.827Z,167.63
2018-03-26T03:39:26.554Z,169.77
2018-03-26T03:41:54.070Z,162.00
2018-03-26T03:44:22.340Z,168.53
2018-03-26T03:46:49.879Z,161.63
2018-03-26T03:49:17.399Z,171.00
2018-03-26T03:51:44.987Z,171.63
2018-03-26T03:54:12.514Z,164.10
2018-03-26T03:56:40.046Z,143.93
2018-03-26T03:59:08.326Z,171.47
2018-03-26T04:01:35.876Z,170.53
2018-03-26T04:04:04.163Z,140.37
2018-03-26T04:06:32.462Z,178.30
2018-03-26T04:08:59.956Z,146.33
2018-03-26T04:11:27.473Z,152.03
2018-03-26T04:13:54.978Z,154.17
2018-03-26T04:16:22.587Z,146.83
2018-03-26T04:18:50.104Z,145.07
2018-03-26T04:21:17.663Z,141.17
2018-03-26T04:23:45.199Z,132.77
2018-03-26T04:26:12.703Z,135.90
2018-03-26T04:28:40.248Z,134.50
2018-03-26T04:31:08.588Z,139.93
2018-03-26T04:33:36.921Z,135.33
2018-03-26T04:36:04.453Z,120.60
2018-03-26T04:38:32.743Z,134.43
2018-03-26T04:41:00.270Z,132.90
2018-03-26T04:43:27.812Z,132.37
2018-03-26T04:45:55.331Z,119.50
2018-03-26T04:48:22.887Z,108.50
2018-03-26T04:50:51.147Z,115.33
2018-03-26T04:53:19.420Z,124.03
2018-03-26T04:55:47.839Z,114.07
2018-03-26T04:58:15.342Z,106.80
2018-03-26T05:00:42.906Z,120.33
2018-03-26T05:03:10.426Z,123.30
2018-03-26T05:05:37.959Z,109.10
2018-03-26T05:08:05.514Z,110.83
2018-03-26T05:10:33.042Z,102.37
2018-03-26T05:13:01.349Z,107.10
2018-03-26T05:15:28.871Z,116.67
2018-03-26T05:17:57.147Z,105.33
2018-03-26T05:20:25.425Z,118.80
2018-03-26T05:22:53.719Z,104.73
2018-03-26T05:25:22.089Z,111.20
2018-03-26T05:27:49.627Z,107.97
2018-03-26T05:30:17.148Z,106.67
2018-03-26T05:32:44.734Z,123.53
2018-03-26T05:35:12.246Z,108.37
2018-03-26T05:37:39.841Z,112.20
2018-03-26T05:40:08.161Z,100.53
2018-03-26T05:42:35.738Z,106.17
2018-03-26T05:45:03.270Z,118.80
2018-03-26T05:47:31.550Z,107.00
2018-03-26T05:49:59.902Z,101.27
2018-03-26T05:52:28.264Z,106.07
2018-03-26T05:54:55.779Z,127.90
2018-03-26T05:57:23.297Z,115.83
2018-03-26T05:59:51.575Z,131.17
2018-03-26T06:02:19.882Z,142.43
2018-03-26T06:04:47.437Z,136.40
2018-03-26T06:07:14.992Z,133.63
2018-03-26T06:09:42.873Z,116.23
2018-03-26T06:12:10.386Z,117.57
2018-03-26T06:14:38.704Z,120.60
2018-03-26T06:17:17.859Z,119.93
2018-03-26T06:19:45.403Z,114.90
2018-03-26T06:22:12.990Z,114.70
2018-03-26T06:24:40.486Z,119.03
2018-03-26T06:27:08.005Z,129.33
2018-03-26T06:29:35.528Z,128.50
2018-03-26T06:32:03.076Z,113.37
2018-03-26T06:34:30.713Z,126.33
2018-03-26T06:37:14.723Z,124.07
2018-03-26T06:39:42.243Z,134.73
2018-03-26T06:42:09.756Z,116.00
2018-03-26T06:44:37.279Z,109.40
2018-03-26T06:47:05.209Z,107.17
2018-03-26T06:49:32.662Z,124.30
2018-03-26T06:52:00.200Z,105.10
2018-03-26T06:54:29.232Z,109.10
2018-03-26T06:56:56.779Z,137.83
2018-03-26T06:59:24.278Z,125.97
2018-03-26T07:01:51.811Z,137.73
2018-03-26T07:04:19.319Z,111.20
2018-03-26T07:06:47.628Z,139.93
2018-03-26T07:09:15.911Z,126.13
2018-03-26T07:11:43.431Z,126.63
2018-03-26T07:14:11.767Z,138.27
2018-03-26T07:16:39.293Z,134.43
2018-03-26T07:19:06.802Z,121.03
2018-03-26T07:21:34.339Z,120.73
2018-03-26T07:24:01.843Z,129.20
2018-03-26T07:26:30.151Z,115.73
2018-03-26T07:28:57.680Z,117.40
2018-03-26T07:31:25.173Z,120.63
2018-03-26T07:33:52.771Z,111.87
2018-03-26T07:36:20.304Z,127.23
2018-03-26T07:38:47.906Z,123.37
2018-03-26T07:41:15.449Z,123.30
2018-03-26T07:43:43.034Z,121.33
2018-03-26T07:46:11.335Z,110.10
2018-03-26T07:48:38.892Z,133.80
2018-03-26T07:51:07.173Z,142.53
2018-03-26T07:53:34.806Z,137.90
2018-03-26T07:56:03.134Z,146.00
2018-03-26T07:58:30.672Z,159.80
2018-03-26T08:00:58.231Z,154.33
2018-03-26T08:03:25.787Z,157.23
2018-03-26T08:05:53.308Z,170.10
2018-03-26T08:08:21.654Z,153.27
2018-03-26T08:10:49.168Z,152.90
2018-03-26T08:13:16.793Z,183.90
2018-03-26T08:15:55.028Z,192.17
2018-03-26T08:18:22.542Z,184.63
2018-03-26T08:20:50.100Z,188.13
2018-03-26T08:23:17.674Z,187.07
2018-03-26T08:25:46.025Z,201.67
2018-03-26T08:28:13.834Z,215.07
2018-03-26T08:30:42.126Z,221.37
2018-03-26T08:33:09.606Z,218.53
2018-03-26T08:35:37.149Z,206.37
2018-03-26T08:38:04.678Z,206.20
2018-03-26T08:40:33.038Z,181.03
2018-03-26T08:43:00.625Z,188.90
2018-03-26T08:45:28.120Z,187.70
2018-03-26T08:47:55.644Z,179.57
2018-03-26T08:50:23.166Z,178.57
2018-03-26T08:52:50.690Z,182.43
2018-03-26T08:55:18.255Z,167.17
2018-03-26T08:57:45.778Z,161.07
2018-03-26T09:00:13.315Z,153.10
2018-03-26T09:02:41.588Z,144.20
2018-03-26T09:05:09.925Z,139.97
2018-03-26T09:07:37.483Z,134.17
2018-03-26T09:10:04.992Z,137.47
2018-03-26T09:12:32.593Z,113.70
2018-03-26T09:15:00.132Z,74.83
2018-03-26T09:17:27.699Z,53.23
2018-03-26T09:19:55.232Z,71.90
2018-03-26T09:22:24.476Z,75.53
2018-03-26T09:24:52.032Z,75.90
2018-03-26T09:27:19.521Z,77.47
2018-03-26T09:29:47.835Z,79.27
2018-03-26T09:32:15.350Z,63.43
2018-03-26T09:34:43.629Z,52.27
2018-03-26T09:37:11.163Z,48.00
2018-03-26T09:39:38.681Z,54.80
2018-03-26T09:42:06.307Z,52.23
2018-03-26T09:44:34.601Z,52.17
2018-03-26T09:47:02.128Z,270.57
2018-03-26T09:49:29.657Z,50.87
2018-03-26T09:51:57.157Z,53.53
2018-03-26T09:54:25.455Z,44.80
2018-03-26T09:56:53.075Z,44.40
2018-03-26T09:59:20.564Z,26.00
2018-03-26T10:01:53.912Z,28.30
2018-03-26T10:04:21.406Z,39.70
2018-03-26T10:06:49.710Z,31.27
2018-03-26T10:09:17.233Z,31.80
2018-03-26T10:11:45.517Z,16.87
2018-03-26T10:14:13.809Z,29.97
2018-03-26T10:16:41.310Z,18.70
2018-03-26T10:19:09.135Z,23.57
2018-03-26T10:21:36.657Z,26.53
2018-03-26T10:24:04.959Z,24.23
2018-03-26T10:26:33.324Z,26.73
2018-03-26T10:29:01.596Z,24.70
2018-03-26T10:31:29.892Z,28.93
2018-03-26T10:33:57.407Z,24.30
2018-03-26T10:36:25.108Z,23.10
2018-03-26T10:38:52.751Z,27.17
2018-03-26T10:41:21.015Z,12.80
2018-03-26T10:43:49.332Z,7.50
2018-03-26T10:46:16.858Z,9.57
2018-03-26T10:48:45.138Z,7.97
2018-03-26T10:51:12.699Z,9.17
2018-03-26T10:53:40.989Z,9.90
2018-03-26T10:56:08.535Z,9.77
2018-03-26T10:58:36.150Z,9.03
2018-03-26T11:01:03.782Z,11.10
2018-03-26T11:03:31.659Z,10.60
2018-03-26T11:05:59.363Z,13.50
2018-03-26T11:08:27.265Z,24.93
2018-03-26T11:10:54.870Z,17.20
2018-03-26T11:13:22.398Z,15.00
2018-03-26T11:15:49.973Z,30.83
2018-03-26T11:18:17.479Z,18.00
2018-03-26T11:20:45.014Z,25.40
2018-03-26T11:23:13.138Z,36.03
2018-03-26T11:25:40.685Z,26.83
2018-03-26T11:28:08.237Z,32.37
2018-03-26T11:30:35.826Z,45.87
2018-03-26T11:33:03.446Z,29.67
2018-03-26T11:35:31.726Z,37.87
2018-03-26T11:37:59.264Z,34.17
2018-03-26T11:40:26.858Z,146.67
2018-03-26T11:42:54.399Z,43.43
2018-03-26T11:45:21.969Z,38.60
2018-03-26T11:47:49.507Z,32.10
2018-03-26T11:50:17.891Z,37.97
2018-03-26T11:52:45.475Z,26.67
2018-03-26T11:55:12.997Z,40.80
2018-03-26T11:57:40.517Z,37.00
2018-03-26T12:00:08.065Z,39.70
2018-03-26T12:02:35.592Z,37.37
2018-03-26T12:05:03.221Z,40.83
2018-03-26T12:07:31.565Z,32.90
2018-03-26T12:09:59.372Z,26.83
2018-03-26T12:12:27.682Z,26.00
2018-03-26T12:14:55.244Z,20.80
2018-03-26T12:17:23.027Z,24.27
2018-03-26T12:20:02.331Z,23.50
2018-03-26T12:22:29.948Z,21.80
2018-03-26T12:25:15.813Z,34.97
2018-03-26T12:27:55.408Z,31.87
2018-03-26T12:30:25.324Z,24.47
2018-03-26T12:32:53.103Z,26.63
2018-03-26T12:35:32.502Z,27.93
2018-03-26T12:38:00.084Z,22.80
2018-03-26T12:40:40.583Z,22.67
2018-03-26T12:43:08.129Z,32.50
2018-03-26T12:45:47.434Z,28.93
2018-03-26T12:48:14.958Z,19.07
2018-03-26T12:51:05.127Z,23.00
2018-03-26T12:53:32.679Z,27.10
2018-03-26T12:56:00.254Z,20.13
2018-03-26T12:58:39.784Z,29.93
2018-03-26T13:01:19.025Z,14.30
2018-03-26T13:03:47.345Z,11.70
2018-03-26T13:06:16.156Z,24.57
2018-03-26T13:08:44.430Z,10.93
2018-03-26T13:11:12.099Z,16.80
2018-03-26T13:13:40.385Z,10.70
2018-03-26T13:16:07.999Z,15.20
2018-03-26T13:18:35.590Z,14.60
2018-03-26T13:21:03.134Z,11.50
2018-03-26T13:23:30.649Z,14.80
2018-03-26T13:25:58.996Z,9.90
2018-03-26T13:28:26.509Z,11.17
2018-03-26T13:30:54.062Z,9.70
2018-03-26T13:33:22.340Z,8.33
2018-03-26T13:35:49.859Z,8.90
2018-03-26T13:38:17.488Z,13.23
2018-03-26T13:40:44.995Z,12.13
2018-03-26T13:43:13.962Z,8.00
2018-03-26T13:45:41.558Z,10.60
2018-03-26T13:48:09.863Z,9.80
2018-03-26T13:50:37.725Z,7.67
2018-03-26T13:53:05.255Z,7.40
2018-03-26T13:55:33.538Z,5.37
2018-03-26T13:58:01.063Z,7.00
2018-03-26T14:00:28.650Z,9.03
2018-03-26T14:02:56.341Z,10.13
2018-03-26T14:05:23.849Z,9.00
2018-03-26T14:07:52.246Z,13.60
2018-03-26T14:10:31.700Z,13.60
2018-03-26T14:13:11.227Z,8.10
2018-03-26T14:15:50.803Z,6.40
2018-03-26T14:18:18.354Z,3.40
2018-03-26T14:20:45.879Z,8.33
2018-03-26T14:23:13.410Z,4.30
2018-03-26T14:25:40.907Z,6.00
2018-03-26T14:28:08.420Z,5.33
2018-03-26T14:30:35.956Z,4.70
2018-03-26T14:33:03.468Z,4.40
2018-03-26T14:35:46.617Z,4.43
2018-03-26T14:38:14.139Z,3.53
2018-03-26T14:40:42.409Z,4.67
2018-03-26T14:43:09.990Z,5.57
2018-03-26T14:45:38.271Z,5.43
2018-03-26T14:48:05.847Z,4.73
2018-03-26T14:50:33.365Z,5.90
2018-03-26T14:53:01.639Z,9.30
2018-03-26T14:55:29.966Z,5.10
2018-03-26T14:57:57.442Z,5.53
2018-03-26T15:00:24.967Z,7.17
2018-03-26T15:02:52.532Z,7.60
2018-03-26T15:05:20.817Z,8.43
2018-03-26T15:07:48.461Z,10.03
2018-03-26T15:10:15.949Z,11.67
2018-03-26T15:12:43.460Z,11.33
2018-03-26T15:15:10.951Z,7.70
2018-03-26T15:17:38.476Z,15.70
2018-03-26T15:20:06.010Z,9.33
2018-03-26T15:22:34.322Z,9.40
2018-03-26T15:25:01.842Z,13.90
2018-03-26T15:27:30.202Z,15.70
2018-03-26T15:29:58.323Z,16.20
2018-03-26T15:32:25.891Z,11.70
2018-03-26T15:34:53.422Z,12.20
2018-03-26T15:37:20.975Z,49.33
2018-03-26T15:39:48.495Z,14.33
2018-03-26T15:42:16.050Z,10.70
2018-03-26T15:44:43.590Z,10.70
2018-03-26T15:47:11.208Z,12.90
2018-03-26T15:49:40.528Z,11.03
2018-03-26T15:52:08.039Z,7.63
2018-03-26T15:54:35.562Z,11.70
2018-03-26T15:57:03.157Z,18.03
2018-03-26T15:59:31.574Z,8.83
2018-03-26T16:01:59.859Z,12.27
2018-03-26T16:04:27.381Z,9.17
2018-03-26T16:06:55.759Z,12.63
2018-03-26T16:09:23.339Z,9.53
2018-03-26T16:11:50.855Z,12.50
2018-03-26T16:14:19.154Z,10.93
2018-03-26T16:16:47.536Z,10.50
2018-03-26T16:19:15.944Z,13.47
2018-03-26T16:21:43.559Z,8.53
2018-03-26T16:24:11.151Z,7.40
2018-03-26T16:26:38.673Z,10.40
2018-03-26T16:29:06.329Z,5.93
2018-03-26T16:31:33.983Z,11.20
2018-03-26T16:34:01.536Z,8.10
2018-03-26T16:36:29.074Z,7.83
2018-03-26T16:38:56.622Z,17.93
2018-03-26T16:41:35.858Z,12.30
2018-03-26T16:44:03.406Z,14.03
2018-03-26T16:46:30.977Z,9.83
2018-03-26T16:48:58.508Z,10.77
2018-03-26T16:51:26.284Z,15.30
2018-03-26T16:53:53.784Z,9.93
2018-03-26T16:56:34.258Z,13.97
2018-03-26T16:59:03.242Z,12.37
2018-03-26T17:01:30.775Z,6.83
2018-03-26T17:03:58.350Z,9.93
2018-03-26T17:06:25.903Z,10.07
2018-03-26T17:08:53.484Z,6.83
2018-03-26T17:11:21.018Z,5.30
2018-03-26T17:13:48.958Z,6.70
2018-03-26T17:16:16.562Z,8.17
2018-03-26T17:18:44.058Z,14.27
2018-03-26T17:21:11.708Z,9.27
2018-03-26T17:23:40.011Z,11.83
2018-03-26T17:26:07.519Z,8.70
2018-03-26T17:28:35.134Z,9.93
2018-03-26T17:31:02.701Z,11.30
2018-03-26T17:33:30.271Z,5.40
2018-03-26T17:35:57.782Z,19.07
2018-03-26T17:38:25.322Z,8.10
2018-03-26T17:40:53.727Z,9.00
2018-03-26T17:43:21.260Z,10.80
2018-03-26T17:45:48.848Z,10.10
2018-03-26T17:48:16.404Z,17.73
2018-03-26T17:50:44.068Z,7.70
2018-03-26T17:53:11.600Z,8.80
2018-03-26T17:55:39.892Z,18.60
2018-03-26T17:58:07.473Z,6.50
2018-03-26T18:00:35.019Z,10.80
2018-03-26T18:03:02.545Z,8.27
2018-03-26T18:05:30.859Z,10.93
2018-03-26T18:07:58.378Z,10.20
2018-03-26T18:10:26.758Z,9.30
2018-03-26T18:12:55.023Z,8.77
2018-03-26T18:15:23.332Z,12.90
2018-03-26T18:17:50.845Z,13.47
2018-03-26T18:20:18.339Z,10.00
2018-03-26T18:22:45.892Z,14.20
2018-03-26T18:25:14.256Z,10.87
2018-03-26T18:27:42.552Z,13.33
2018-03-26T18:30:10.105Z,15.80
2018-03-26T18:32:37.631Z,20.60
2018-03-26T18:35:05.178Z,11.90
2018-03-26T18:37:32.744Z,12.80
2018-03-26T18:40:00.264Z,19.43
2018-03-26T18:42:27.762Z,19.60
2018-03-26T18:44:55.312Z,12.90
2018-03-26T18:47:23.520Z,17.20
2018-03-26T18:49:51.794Z,14.30
2018-03-26T18:52:20.083Z,21.87
2018-03-26T18:54:47.588Z,18.53
2018-03-26T18:57:15.130Z,16.20
2018-03-26T18:59:42.742Z,17.30
2018-03-26T19:02:11.799Z,15.13
2018-03-26T19:04:39.364Z,24.90
2018-03-26T19:07:06.976Z,13.67
2018-03-26T19:09:34.495Z,21.10
2018-03-26T19:12:02.565Z,18.50
2018-03-26T19:14:30.855Z,18.90
2018-03-26T19:16:59.137Z,18.83
2018-03-26T19:19:27.491Z,20.10
2018-03-26T19:21:55.038Z,16.87
2018-03-26T19:24:23.446Z,16.70
2018-03-26T19:26:50.976Z,15.60
2018-03-26T19:29:18.630Z,14.93
2018-03-26T19:31:46.108Z,12.43
2018-03-26T19:34:14.387Z,12.60
2018-03-26T19:36:42.684Z,13.07
2018-03-26T19:39:10.194Z,15.60
2018-03-26T19:41:37.749Z,10.80
2018-03-26T19:44:06.164Z,12.57
2018-03-26T19:46:35.394Z,11.63
2018-03-26T19:49:02.946Z,11.50
2018-03-26T19:51:30.450Z,19.10
2018-03-26T19:53:57.953Z,15.80
2018-03-26T19:56:26.064Z,11.03
2018-03-26T19:58:53.723Z,11.60
2018-03-26T20:01:21.342Z,14.13
2018-03-26T20:03:48.916Z,18.97
2018-03-26T20:06:16.852Z,10.13
2018-03-26T20:08:44.423Z,14.03
2018-03-26T20:11:11.980Z,13.93
2018-03-26T20:13:41.019Z,11.90
2018-03-26T20:16:08.546Z,15.30
2018-03-26T20:18:36.390Z,11.93
2018-03-26T20:21:03.989Z,14.80
2018-03-26T20:23:31.526Z,20.00
2018-03-26T20:25:59.084Z,14.07
2018-03-26T20:28:27.134Z,16.20
2018-03-26T20:30:56.407Z,16.67
2018-03-26T20:33:23.947Z,10.60
2018-03-26T20:35:52.300Z,12.00
2018-03-26T20:38:20.306Z,12.47
2018-03-26T20:40:47.841Z,17.30
2018-03-26T20:43:15.627Z,19.80
2018-03-26T20:45:43.180Z,15.47
2018-03-26T20:48:10.789Z,15.30
2018-03-26T20:50:38.576Z,19.77
2018-03-26T20:53:06.123Z,16.17
2018-03-26T20:55:33.629Z,17.13
2018-03-26T20:58:01.150Z,12.40
2018-03-26T21:00:30.937Z,17.03
2018-03-26T21:02:58.580Z,20.63
2018-03-26T21:05:26.871Z,18.60
2018-03-26T21:07:54.423Z,20.33
2018-03-26T21:10:22.526Z,16.80
2018-03-26T21:12:50.150Z,18.80
2018-03-26T21:15:18.762Z,28.73
2018-03-26T21:17:46.258Z,32.77
2018-03-26T21:20:13.821Z,28.17
2018-03-26T21:22:41.338Z,29.93
2018-03-26T21:25:08.856Z,26.50
2018-03-26T21:27:37.227Z,24.37
2018-03-26T21:30:05.604Z,20.13
2018-03-26T21:32:33.135Z,25.63
2018-03-26T21:35:00.722Z,27.73
2018-03-26T21:37:29.050Z,25.27
2018-03-26T21:39:56.667Z,20.77
2018-03-26T21:42:24.980Z,21.00
2018-03-26T21:44:52.515Z,40.43
2018-03-26T21:47:20.057Z,24.03
2018-03-26T21:49:48.373Z,22.30
2018-03-26T21:52:15.984Z,22.07
2018-03-26T21:54:44.324Z,32.47
2018-03-26T21:57:11.847Z,24.33
2018-03-26T21:59:39.370Z,26.73
2018-03-26T22:02:07.671Z,29.20
2018-03-26T22:04:35.231Z,26.90
2018-03-26T22:07:02.782Z,28.80
2018-03-26T22:09:30.361Z,28.13
2018-03-26T22:11:57.867Z,26.93
2018-03-26T22:14:26.883Z,27.80
2018-03-26T22:16:55.221Z,26.07
2018-03-26T22:19:22.700Z,32.23
2018-03-26T22:21:50.236Z,29.40
2018-03-26T22:24:18.061Z,30.10
2018-03-26T22:26:45.610Z,29.90
2018-03-26T22:29:13.120Z,29.53
2018-03-26T22:31:40.682Z,28.30
2018-03-26T22:34:08.239Z,31.30
2018-03-26T22:36:35.847Z,46.87
2018-03-26T22:39:03.353Z,27.13
2018-03-26T22:41:30.848Z,29.73
2018-03-26T22:43:59.277Z,29.17
2018-03-26T22:46:26.855Z,34.87
2018-03-26T22:48:54.379Z,29.77
2018-03-26T22:51:21.889Z,30.60
2018-03-26T22:53:49.412Z,30.40
2018-03-26T22:56:16.967Z,32.63
2018-03-26T22:58:44.467Z,31.97
2018-03-26T23:01:12.025Z,30.67
2018-03-26T23:03:40.335Z,31.60
2018-03-26T23:06:07.950Z,35.13
2018-03-26T23:08:36.249Z,36.57
2018-03-26T23:11:03.790Z,28.50
2018-03-26T23:13:31.495Z,36.10
2018-03-26T23:15:58.978Z,33.30
2018-03-26T23:18:26.499Z,31.70
2018-03-26T23:20:54.048Z,30.63
2018-03-26T23:23:21.555Z,30.20
2018-03-26T23:25:49.386Z,30.07
2018-03-26T23:28:16.872Z,31.67
2018-03-26T23:30:44.389Z,33.73
2018-03-26T23:33:11.942Z,32.47
2018-03-26T23:35:39.526Z,37.07
2018-03-26T23:38:07.067Z,37.13
2018-03-26T23:40:35.494Z,38.33
2018-03-26T23:43:02.998Z,33.60
2018-03-26T23:45:30.529Z,45.13
2018-03-26T23:47:58.805Z,41.87
2018-03-26T23:50:27.129Z,43.53
2018-03-26T23:52:54.654Z,42.47
2018-03-26T23:55:22.164Z,40.23
2018-03-26T23:57:49.684Z,38.80
